sensor_id;sensor_type;location;lat;lon;timestamp;P1;durP1;ratioP1;P2;durP2;ratioP2
36391;SDS011;22639;42.690;23.356;2023-12-07T00:01:13;12.93;;;8.87;;
36391;SDS011;22639;42.690;23.356;2023-12-07T00:04:38;14.67;;;8.60;;
36391;SDS011;22639;42.690;23.356;2023-12-07T00:08:02;17.47;;;8.33;;
36391;SDS011;22639;42.690;23.356;2023-12-07T00:11:26;12.77;;;7.47;;
36391;SDS011;22639;42.690;23.356;2023-12-07T00:14:50;16.90;;;9.60;;
36391;SDS011;22639;42.690;23.356;2023-12-07T00:18:14;14.33;;;9.17;;
36391;SDS011;22639;42.690;23.356;2023-12-07T00:21:38;16.47;;;8.77;;
36391;SDS011;22639;42.690;23.356;2023-12-07T00:25:03;19.27;;;8.80;;
36391;SDS011;22639;42.690;23.356;2023-12-07T00:28:28;17.77;;;9.07;;
36391;SDS011;22639;42.690;23.356;2023-12-07T00:31:52;17.37;;;8.17;;
36391;SDS011;22639;42.690;23.356;2023-12-07T00:35:15;10.00;;;7.13;;
36391;SDS011;22639;42.690;23.356;2023-12-07T00:38:40;12.10;;;7.50;;
36391;SDS011;22639;42.690;23.356;2023-12-07T00:42:05;13.13;;;6.60;;
36391;SDS011;22639;42.690;23.356;2023-12-07T00:45:29;11.53;;;6.40;;
36391;SDS011;22639;42.690;23.356;2023-12-07T00:48:53;13.07;;;7.60;;
36391;SDS011;22639;42.690;23.356;2023-12-07T00:52:17;9.53;;;6.67;;
36391;SDS011;22639;42.690;23.356;2023-12-07T00:55:41;16.43;;;8.97;;
36391;SDS011;22639;42.690;23.356;2023-12-07T00:59:05;13.67;;;9.23;;
36391;SDS011;22639;42.690;23.356;2023-12-07T01:02:30;16.17;;;8.50;;
36391;SDS011;22639;42.690;23.356;2023-12-07T01:05:55;16.23;;;9.60;;
36391;SDS011;22639;42.690;23.356;2023-12-07T01:09:19;14.30;;;8.83;;
36391;SDS011;22639;42.690;23.356;2023-12-07T01:12:43;12.10;;;7.43;;
36391;SDS011;22639;42.690;23.356;2023-12-07T01:16:06;11.93;;;7.47;;
36391;SDS011;22639;42.690;23.356;2023-12-07T01:19:31;18.10;;;8.10;;
36391;SDS011;22639;42.690;23.356;2023-12-07T01:22:55;15.57;;;9.10;;
36391;SDS011;22639;42.690;23.356;2023-12-07T01:26:19;10.10;;;8.27;;
36391;SDS011;22639;42.690;23.356;2023-12-07T01:29:43;12.30;;;8.03;;
36391;SDS011;22639;42.690;23.356;2023-12-07T01:33:07;13.33;;;8.70;;
36391;SDS011;22639;42.690;23.356;2023-12-07T01:36:31;16.37;;;10.23;;
36391;SDS011;22639;42.690;23.356;2023-12-07T01:39:55;16.53;;;9.00;;
36391;SDS011;22639;42.690;23.356;2023-12-07T01:43:21;12.90;;;7.17;;
36391;SDS011;22639;42.690;23.356;2023-12-07T01:46:46;15.83;;;9.80;;
36391;SDS011;22639;42.690;23.356;2023-12-07T01:50:10;16.33;;;10.23;;
36391;SDS011;22639;42.690;23.356;2023-12-07T01:53:37;19.30;;;10.07;;
36391;SDS011;22639;42.690;23.356;2023-12-07T01:57:03;15.87;;;9.97;;
36391;SDS011;22639;42.690;23.356;2023-12-07T02:00:28;18.87;;;10.30;;
36391;SDS011;22639;42.690;23.356;2023-12-07T02:03:52;13.87;;;9.93;;
36391;SDS011;22639;42.690;23.356;2023-12-07T02:07:17;14.30;;;10.10;;
36391;SDS011;22639;42.690;23.356;2023-12-07T02:10:41;19.80;;;10.27;;
36391;SDS011;22639;42.690;23.356;2023-12-07T02:14:05;17.03;;;9.93;;
36391;SDS011;22639;42.690;23.356;2023-12-07T02:17:38;14.77;;;8.87;;
36391;SDS011;22639;42.690;23.356;2023-12-07T02:21:18;18.63;;;10.87;;
36391;SDS011;22639;42.690;23.356;2023-12-07T02:25:07;16.57;;;10.13;;
36391;SDS011;22639;42.690;23.356;2023-12-07T02:29:08;16.43;;;9.77;;
36391;SDS011;22639;42.690;23.356;2023-12-07T02:32:34;19.23;;;10.90;;
36391;SDS011;22639;42.690;23.356;2023-12-07T02:35:59;17.97;;;9.90;;
36391;SDS011;22639;42.690;23.356;2023-12-07T02:39:23;18.10;;;10.83;;
36391;SDS011;22639;42.690;23.356;2023-12-07T02:42:50;17.27;;;9.70;;
36391;SDS011;22639;42.690;23.356;2023-12-07T02:46:15;24.13;;;11.90;;
36391;SDS011;22639;42.690;23.356;2023-12-07T02:49:39;15.50;;;9.87;;
36391;SDS011;22639;42.690;23.356;2023-12-07T02:53:03;21.07;;;10.43;;
36391;SDS011;22639;42.690;23.356;2023-12-07T02:56:27;17.07;;;9.87;;
36391;SDS011;22639;42.690;23.356;2023-12-07T02:59:51;18.17;;;11.17;;
36391;SDS011;22639;42.690;23.356;2023-12-07T03:03:15;20.60;;;11.30;;
36391;SDS011;22639;42.690;23.356;2023-12-07T03:06:39;21.63;;;10.20;;
36391;SDS011;22639;42.690;23.356;2023-12-07T03:10:03;15.70;;;9.47;;
36391;SDS011;22639;42.690;23.356;2023-12-07T03:13:28;11.17;;;7.40;;
36391;SDS011;22639;42.690;23.356;2023-12-07T03:16:52;14.47;;;6.57;;
36391;SDS011;22639;42.690;23.356;2023-12-07T03:20:16;11.63;;;6.47;;
36391;SDS011;22639;42.690;23.356;2023-12-07T03:23:40;11.77;;;5.90;;
36391;SDS011;22639;42.690;23.356;2023-12-07T03:27:05;13.87;;;7.30;;
36391;SDS011;22639;42.690;23.356;2023-12-07T03:30:29;11.87;;;7.47;;
36391;SDS011;22639;42.690;23.356;2023-12-07T03:33:54;10.53;;;7.00;;
36391;SDS011;22639;42.690;23.356;2023-12-07T03:37:18;9.13;;;7.40;;
36391;SDS011;22639;42.690;23.356;2023-12-07T03:40:42;11.57;;;7.47;;
36391;SDS011;22639;42.690;23.356;2023-12-07T03:44:06;10.03;;;5.83;;
36391;SDS011;22639;42.690;23.356;2023-12-07T03:47:30;11.00;;;7.63;;
36391;SDS011;22639;42.690;23.356;2023-12-07T03:50:54;12.73;;;7.57;;
36391;SDS011;22639;42.690;23.356;2023-12-07T03:54:19;12.90;;;7.33;;
36391;SDS011;22639;42.690;23.356;2023-12-07T03:57:43;11.70;;;6.90;;
36391;SDS011;22639;42.690;23.356;2023-12-07T04:01:07;14.30;;;6.73;;
36391;SDS011;22639;42.690;23.356;2023-12-07T04:04:31;11.27;;;6.43;;
36391;SDS011;22639;42.690;23.356;2023-12-07T04:07:55;15.07;;;7.33;;
36391;SDS011;22639;42.690;23.356;2023-12-07T04:11:19;12.37;;;7.57;;
36391;SDS011;22639;42.690;23.356;2023-12-07T04:14:44;12.40;;;6.00;;
36391;SDS011;22639;42.690;23.356;2023-12-07T04:18:08;14.37;;;6.13;;
36391;SDS011;22639;42.690;23.356;2023-12-07T04:21:33;11.67;;;7.07;;
36391;SDS011;22639;42.690;23.356;2023-12-07T04:24:56;8.30;;;6.07;;
36391;SDS011;22639;42.690;23.356;2023-12-07T04:28:20;10.57;;;6.67;;
36391;SDS011;22639;42.690;23.356;2023-12-07T04:31:45;10.97;;;6.23;;
36391;SDS011;22639;42.690;23.356;2023-12-07T04:35:09;9.20;;;7.13;;
36391;SDS011;22639;42.690;23.356;2023-12-07T04:38:33;11.90;;;7.13;;
36391;SDS011;22639;42.690;23.356;2023-12-07T04:41:57;11.80;;;7.27;;
36391;SDS011;22639;42.690;23.356;2023-12-07T04:45:21;12.53;;;7.33;;
36391;SDS011;22639;42.690;23.356;2023-12-07T04:48:45;14.67;;;7.93;;
36391;SDS011;22639;42.690;23.356;2023-12-07T04:52:09;9.67;;;7.30;;
36391;SDS011;22639;42.690;23.356;2023-12-07T04:55:33;12.43;;;8.77;;
36391;SDS011;22639;42.690;23.356;2023-12-07T04:58:57;14.30;;;8.27;;
36391;SDS011;22639;42.690;23.356;2023-12-07T05:02:21;14.83;;;8.30;;
36391;SDS011;22639;42.690;23.356;2023-12-07T05:05:45;15.57;;;9.83;;
36391;SDS011;22639;42.690;23.356;2023-12-07T05:09:09;17.03;;;8.83;;
36391;SDS011;22639;42.690;23.356;2023-12-07T05:12:34;14.83;;;9.77;;
36391;SDS011;22639;42.690;23.356;2023-12-07T05:15:59;12.43;;;8.17;;
36391;SDS011;22639;42.690;23.356;2023-12-07T05:19:23;17.90;;;8.37;;
36391;SDS011;22639;42.690;23.356;2023-12-07T05:22:49;13.33;;;7.17;;
36391;SDS011;22639;42.690;23.356;2023-12-07T05:26:13;13.10;;;7.23;;
36391;SDS011;22639;42.690;23.356;2023-12-07T05:29:37;13.60;;;7.67;;
36391;SDS011;22639;42.690;23.356;2023-12-07T05:33:01;11.57;;;7.27;;
36391;SDS011;22639;42.690;23.356;2023-12-07T05:36:26;13.40;;;8.27;;
36391;SDS011;22639;42.690;23.356;2023-12-07T05:39:50;17.20;;;9.27;;
36391;SDS011;22639;42.690;23.356;2023-12-07T05:43:14;12.07;;;7.80;;
36391;SDS011;22639;42.690;23.356;2023-12-07T05:46:38;13.57;;;9.03;;
36391;SDS011;22639;42.690;23.356;2023-12-07T05:50:02;10.00;;;6.90;;
36391;SDS011;22639;42.690;23.356;2023-12-07T05:53:26;16.17;;;9.00;;
36391;SDS011;22639;42.690;23.356;2023-12-07T05:56:50;19.60;;;10.50;;
36391;SDS011;22639;42.690;23.356;2023-12-07T06:00:15;20.53;;;11.07;;
36391;SDS011;22639;42.690;23.356;2023-12-07T06:03:42;16.10;;;9.70;;
36391;SDS011;22639;42.690;23.356;2023-12-07T06:07:06;17.40;;;9.47;;
36391;SDS011;22639;42.690;23.356;2023-12-07T06:10:30;18.13;;;9.57;;
36391;SDS011;22639;42.690;23.356;2023-12-07T06:13:54;16.97;;;10.13;;
36391;SDS011;22639;42.690;23.356;2023-12-07T06:17:19;14.57;;;8.90;;
36391;SDS011;22639;42.690;23.356;2023-12-07T06:20:43;17.77;;;10.03;;
36391;SDS011;22639;42.690;23.356;2023-12-07T06:24:09;17.53;;;10.20;;
36391;SDS011;22639;42.690;23.356;2023-12-07T06:27:34;15.50;;;8.80;;
36391;SDS011;22639;42.690;23.356;2023-12-07T06:31:01;13.70;;;8.13;;
36391;SDS011;22639;42.690;23.356;2023-12-07T06:34:28;13.27;;;9.43;;
36391;SDS011;22639;42.690;23.356;2023-12-07T06:37:53;16.77;;;9.83;;
36391;SDS011;22639;42.690;23.356;2023-12-07T06:41:19;17.63;;;8.40;;
36391;SDS011;22639;42.690;23.356;2023-12-07T06:44:46;15.10;;;9.07;;
36391;SDS011;22639;42.690;23.356;2023-12-07T06:48:12;15.87;;;9.20;;
36391;SDS011;22639;42.690;23.356;2023-12-07T06:51:37;17.27;;;9.60;;
36391;SDS011;22639;42.690;23.356;2023-12-07T06:55:02;15.13;;;8.80;;
36391;SDS011;22639;42.690;23.356;2023-12-07T06:58:26;11.43;;;8.37;;
36391;SDS011;22639;42.690;23.356;2023-12-07T07:01:50;10.23;;;7.77;;
36391;SDS011;22639;42.690;23.356;2023-12-07T07:05:14;20.30;;;8.40;;
36391;SDS011;22639;42.690;23.356;2023-12-07T07:08:38;11.40;;;8.10;;
36391;SDS011;22639;42.690;23.356;2023-12-07T07:12:02;12.10;;;8.03;;
36391;SDS011;22639;42.690;23.356;2023-12-07T07:15:30;13.23;;;7.77;;
36391;SDS011;22639;42.690;23.356;2023-12-07T07:18:54;13.43;;;7.83;;
36391;SDS011;22639;42.690;23.356;2023-12-07T07:22:19;11.73;;;7.70;;
36391;SDS011;22639;42.690;23.356;2023-12-07T07:25:43;13.20;;;8.63;;
36391;SDS011;22639;42.690;23.356;2023-12-07T07:29:07;11.00;;;6.90;;
36391;SDS011;22639;42.690;23.356;2023-12-07T07:32:31;15.93;;;7.73;;
36391;SDS011;22639;42.690;23.356;2023-12-07T07:35:55;10.23;;;7.43;;
36391;SDS011;22639;42.690;23.356;2023-12-07T07:39:20;16.60;;;8.80;;
36391;SDS011;22639;42.690;23.356;2023-12-07T07:42:44;13.07;;;7.10;;
36391;SDS011;22639;42.690;23.356;2023-12-07T07:46:08;13.43;;;7.73;;
36391;SDS011;22639;42.690;23.356;2023-12-07T07:49:33;13.00;;;8.23;;
36391;SDS011;22639;42.690;23.356;2023-12-07T07:52:57;11.13;;;6.43;;
36391;SDS011;22639;42.690;23.356;2023-12-07T07:56:22;13.83;;;8.40;;
36391;SDS011;22639;42.690;23.356;2023-12-07T07:59:46;13.67;;;7.60;;
36391;SDS011;22639;42.690;23.356;2023-12-07T08:03:11;13.87;;;8.03;;
36391;SDS011;22639;42.690;23.356;2023-12-07T08:06:36;13.60;;;7.03;;
36391;SDS011;22639;42.690;23.356;2023-12-07T08:10:00;5.70;;;4.63;;
36391;SDS011;22639;42.690;23.356;2023-12-07T08:13:26;8.37;;;5.40;;
36391;SDS011;22639;42.690;23.356;2023-12-07T08:16:50;8.33;;;5.57;;
36391;SDS011;22639;42.690;23.356;2023-12-07T08:20:15;5.00;;;4.50;;
36391;SDS011;22639;42.690;23.356;2023-12-07T08:23:46;6.20;;;4.47;;
36391;SDS011;22639;42.690;23.356;2023-12-07T08:27:10;6.13;;;3.57;;
36391;SDS011;22639;42.690;23.356;2023-12-07T08:29:37;6.77;;;4.40;;
36391;SDS011;22639;42.690;23.356;2023-12-07T08:33:01;6.07;;;4.33;;
36391;SDS011;22639;42.690;23.356;2023-12-07T08:36:07;6.73;;;4.33;;
36391;SDS011;22639;42.690;23.356;2023-12-07T08:39:31;8.57;;;5.87;;
36391;SDS011;22639;42.690;23.356;2023-12-07T08:42:55;6.23;;;3.83;;
36391;SDS011;22639;42.690;23.356;2023-12-07T08:46:19;16.97;;;5.00;;
36391;SDS011;22639;42.690;23.356;2023-12-07T08:49:44;3.90;;;3.10;;
36391;SDS011;22639;42.690;23.356;2023-12-07T08:53:08;3.80;;;2.93;;
36391;SDS011;22639;42.690;23.356;2023-12-07T08:56:32;4.03;;;2.97;;
36391;SDS011;22639;42.690;23.356;2023-12-07T08:59:56;5.87;;;3.17;;
36391;SDS011;22639;42.690;23.356;2023-12-07T09:03:20;4.33;;;2.93;;
36391;SDS011;22639;42.690;23.356;2023-12-07T09:06:44;2.83;;;1.77;;
36391;SDS011;22639;42.690;23.356;2023-12-07T09:10:08;5.10;;;3.07;;
36391;SDS011;22639;42.690;23.356;2023-12-07T09:13:32;4.67;;;3.03;;
36391;SDS011;22639;42.690;23.356;2023-12-07T09:16:57;3.17;;;2.60;;
36391;SDS011;22639;42.690;23.356;2023-12-07T09:20:21;2.77;;;2.33;;
36391;SDS011;22639;42.690;23.356;2023-12-07T09:23:45;2.83;;;2.53;;
36391;SDS011;22639;42.690;23.356;2023-12-07T09:27:09;5.00;;;2.53;;
36391;SDS011;22639;42.690;23.356;2023-12-07T09:30:33;4.77;;;2.30;;
36391;SDS011;22639;42.690;23.356;2023-12-07T09:33:57;2.03;;;1.83;;
36391;SDS011;22639;42.690;23.356;2023-12-07T09:37:21;6.30;;;3.37;;
36391;SDS011;22639;42.690;23.356;2023-12-07T09:40:46;3.20;;;1.97;;
36391;SDS011;22639;42.690;23.356;2023-12-07T09:44:12;1.93;;;1.70;;
36391;SDS011;22639;42.690;23.356;2023-12-07T09:47:37;2.77;;;2.47;;
36391;SDS011;22639;42.690;23.356;2023-12-07T09:51:02;2.03;;;1.83;;
36391;SDS011;22639;42.690;23.356;2023-12-07T09:54:28;1.87;;;1.73;;
36391;SDS011;22639;42.690;23.356;2023-12-07T09:57:53;2.67;;;2.47;;
36391;SDS011;22639;42.690;23.356;2023-12-07T10:01:17;3.90;;;2.23;;
36391;SDS011;22639;42.690;23.356;2023-12-07T10:04:41;2.53;;;1.50;;
36391;SDS011;22639;42.690;23.356;2023-12-07T10:08:25;1.47;;;0.90;;
36391;SDS011;22639;42.690;23.356;2023-12-07T10:11:49;1.23;;;1.10;;
36391;SDS011;22639;42.690;23.356;2023-12-07T10:15:17;2.33;;;1.50;;
36391;SDS011;22639;42.690;23.356;2023-12-07T10:18:42;1.87;;;1.07;;
36391;SDS011;22639;42.690;23.356;2023-12-07T10:22:13;2.93;;;1.77;;
36391;SDS011;22639;42.690;23.356;2023-12-07T10:25:39;3.47;;;1.93;;
36391;SDS011;22639;42.690;23.356;2023-12-07T10:29:07;2.20;;;1.17;;
36391;SDS011;22639;42.690;23.356;2023-12-07T10:32:38;1.63;;;1.17;;
36391;SDS011;22639;42.690;23.356;2023-12-07T10:36:03;1.03;;;1.00;;
36391;SDS011;22639;42.690;23.356;2023-12-07T10:39:29;1.23;;;0.83;;
36391;SDS011;22639;42.690;23.356;2023-12-07T10:42:54;1.73;;;1.63;;
36391;SDS011;22639;42.690;23.356;2023-12-07T10:46:25;0.70;;;0.67;;
36391;SDS011;22639;42.690;23.356;2023-12-07T10:49:51;2.10;;;1.40;;
36391;SDS011;22639;42.690;23.356;2023-12-07T10:56:47;1.80;;;1.70;;
36391;SDS011;22639;42.690;23.356;2023-12-07T11:00:12;1.47;;;1.10;;
36391;SDS011;22639;42.690;23.356;2023-12-07T11:03:37;1.13;;;1.03;;
36391;SDS011;22639;42.690;23.356;2023-12-07T11:07:04;1.20;;;1.13;;
36391;SDS011;22639;42.690;23.356;2023-12-07T11:10:36;2.40;;;1.63;;
36391;SDS011;22639;42.690;23.356;2023-12-07T11:14:14;1.20;;;0.90;;
36391;SDS011;22639;42.690;23.356;2023-12-07T11:17:55;1.90;;;0.90;;
36391;SDS011;22639;42.690;23.356;2023-12-07T11:21:21;1.03;;;0.97;;
36391;SDS011;22639;42.690;23.356;2023-12-07T11:24:57;1.53;;;1.37;;
36391;SDS011;22639;42.690;23.356;2023-12-07T11:28:34;1.03;;;1.03;;
36391;SDS011;22639;42.690;23.356;2023-12-07T11:32:04;1.33;;;1.23;;
36391;SDS011;22639;42.690;23.356;2023-12-07T11:35:31;1.37;;;1.27;;
36391;SDS011;22639;42.690;23.356;2023-12-07T11:42:25;3.47;;;1.90;;
36391;SDS011;22639;42.690;23.356;2023-12-07T11:46:03;1.67;;;1.57;;
36391;SDS011;22639;42.690;23.356;2023-12-07T11:48:29;3.33;;;2.77;;
36391;SDS011;22639;42.690;23.356;2023-12-07T11:53:31;3.90;;;2.57;;
36391;SDS011;22639;42.690;23.356;2023-12-07T11:56:57;4.13;;;2.03;;
36391;SDS011;22639;42.690;23.356;2023-12-07T12:00:22;3.27;;;2.70;;
36391;SDS011;22639;42.690;23.356;2023-12-07T12:03:47;3.80;;;3.27;;
36391;SDS011;22639;42.690;23.356;2023-12-07T12:07:11;2.83;;;2.37;;
36391;SDS011;22639;42.690;23.356;2023-12-07T12:10:35;3.13;;;2.20;;
36391;SDS011;22639;42.690;23.356;2023-12-07T12:13:59;3.53;;;3.20;;
36391;SDS011;22639;42.690;23.356;2023-12-07T12:17:23;4.13;;;3.10;;
36391;SDS011;22639;42.690;23.356;2023-12-07T12:20:47;5.00;;;3.57;;
36391;SDS011;22639;42.690;23.356;2023-12-07T12:24:13;3.90;;;2.50;;
36391;SDS011;22639;42.690;23.356;2023-12-07T12:27:38;1.57;;;1.47;;
36391;SDS011;22639;42.690;23.356;2023-12-07T12:31:07;2.43;;;1.77;;
36391;SDS011;22639;42.690;23.356;2023-12-07T12:34:33;2.30;;;1.70;;
36391;SDS011;22639;42.690;23.356;2023-12-07T12:37:57;3.43;;;2.33;;
36391;SDS011;22639;42.690;23.356;2023-12-07T12:41:00;4.23;;;1.93;;
36391;SDS011;22639;42.690;23.356;2023-12-07T12:43:25;2.70;;;2.10;;
36391;SDS011;22639;42.690;23.356;2023-12-07T12:45:53;1.53;;;1.43;;
36391;SDS011;22639;42.690;23.356;2023-12-07T12:48:19;1.40;;;1.23;;
36391;SDS011;22639;42.690;23.356;2023-12-07T12:50:47;1.90;;;1.80;;
36391;SDS011;22639;42.690;23.356;2023-12-07T12:53:41;2.13;;;1.93;;
36391;SDS011;22639;42.690;23.356;2023-12-07T12:56:31;1.57;;;1.23;;
36391;SDS011;22639;42.690;23.356;2023-12-07T12:58:57;1.80;;;1.70;;
36391;SDS011;22639;42.690;23.356;2023-12-07T13:02:18;5.47;;;1.63;;
36391;SDS011;22639;42.690;23.356;2023-12-07T13:05:29;1.90;;;1.63;;
36391;SDS011;22639;42.690;23.356;2023-12-07T13:07:59;1.60;;;1.50;;
36391;SDS011;22639;42.690;23.356;2023-12-07T13:10:28;1.80;;;1.20;;
36391;SDS011;22639;42.690;23.356;2023-12-07T13:12:54;2.27;;;1.60;;
36391;SDS011;22639;42.690;23.356;2023-12-07T13:15:21;4.10;;;1.80;;
36391;SDS011;22639;42.690;23.356;2023-12-07T13:17:50;1.90;;;1.53;;
36391;SDS011;22639;42.690;23.356;2023-12-07T13:20:33;1.53;;;1.37;;
36391;SDS011;22639;42.690;23.356;2023-12-07T13:23:18;3.60;;;2.10;;
36391;SDS011;22639;42.690;23.356;2023-12-07T13:26:42;3.43;;;2.37;;
36391;SDS011;22639;42.690;23.356;2023-12-07T13:30:08;4.40;;;2.30;;
36391;SDS011;22639;42.690;23.356;2023-12-07T13:33:32;0.90;;;0.90;;
36391;SDS011;22639;42.690;23.356;2023-12-07T13:36:56;4.33;;;3.10;;
36391;SDS011;22639;42.690;23.356;2023-12-07T13:40:20;2.90;;;2.57;;
36391;SDS011;22639;42.690;23.356;2023-12-07T13:43:43;2.00;;;1.90;;
36391;SDS011;22639;42.690;23.356;2023-12-07T13:47:07;2.47;;;2.17;;
36391;SDS011;22639;42.690;23.356;2023-12-07T13:50:31;3.47;;;2.77;;
36391;SDS011;22639;42.690;23.356;2023-12-07T13:53:35;6.17;;;2.00;;
36391;SDS011;22639;42.690;23.356;2023-12-07T13:56:20;3.53;;;2.37;;
36391;SDS011;22639;42.690;23.356;2023-12-07T13:58:53;2.27;;;2.00;;
36391;SDS011;22639;42.690;23.356;2023-12-07T14:01:36;2.80;;;2.57;;
36391;SDS011;22639;42.690;23.356;2023-12-07T14:04:25;2.63;;;2.13;;
36391;SDS011;22639;42.690;23.356;2023-12-07T14:07:33;2.43;;;1.87;;
36391;SDS011;22639;42.690;23.356;2023-12-07T14:10:56;1.57;;;1.47;;
36391;SDS011;22639;42.690;23.356;2023-12-07T14:14:18;7.63;;;2.53;;
36391;SDS011;22639;42.690;23.356;2023-12-07T14:17:42;4.17;;;3.07;;
36391;SDS011;22639;42.690;23.356;2023-12-07T14:21:07;5.07;;;3.10;;
36391;SDS011;22639;42.690;23.356;2023-12-07T14:24:31;3.47;;;2.57;;
36391;SDS011;22639;42.690;23.356;2023-12-07T14:27:58;3.43;;;2.30;;
36391;SDS011;22639;42.690;23.356;2023-12-07T14:31:22;3.10;;;2.63;;
36391;SDS011;22639;42.690;23.356;2023-12-07T14:34:26;4.87;;;3.17;;
36391;SDS011;22639;42.690;23.356;2023-12-07T14:37:50;7.37;;;2.73;;
36391;SDS011;22639;42.690;23.356;2023-12-07T14:41:15;2.43;;;2.23;;
36391;SDS011;22639;42.690;23.356;2023-12-07T14:44:38;3.17;;;2.63;;
36391;SDS011;22639;42.690;23.356;2023-12-07T14:48:03;2.37;;;2.17;;
36391;SDS011;22639;42.690;23.356;2023-12-07T14:51:28;3.90;;;3.03;;
36391;SDS011;22639;42.690;23.356;2023-12-07T14:54:53;3.37;;;2.70;;
36391;SDS011;22639;42.690;23.356;2023-12-07T14:58:17;3.67;;;2.77;;
36391;SDS011;22639;42.690;23.356;2023-12-07T15:01:17;4.73;;;3.00;;
36391;SDS011;22639;42.690;23.356;2023-12-07T15:04:21;3.83;;;3.13;;
36391;SDS011;22639;42.690;23.356;2023-12-07T15:07:41;3.57;;;3.23;;
36391;SDS011;22639;42.690;23.356;2023-12-07T15:11:04;4.03;;;2.67;;
36391;SDS011;22639;42.690;23.356;2023-12-07T15:14:28;4.80;;;4.40;;
36391;SDS011;22639;42.690;23.356;2023-12-07T15:17:52;6.63;;;3.70;;
36391;SDS011;22639;42.690;23.356;2023-12-07T15:21:16;4.20;;;3.37;;
36391;SDS011;22639;42.690;23.356;2023-12-07T15:24:39;4.57;;;3.83;;
36391;SDS011;22639;42.690;23.356;2023-12-07T15:27:59;6.13;;;3.77;;
36391;SDS011;22639;42.690;23.356;2023-12-07T15:31:22;4.10;;;3.70;;
36391;SDS011;22639;42.690;23.356;2023-12-07T15:34:46;6.57;;;4.17;;
36391;SDS011;22639;42.690;23.356;2023-12-07T15:38:10;4.40;;;3.90;;
36391;SDS011;22639;42.690;23.356;2023-12-07T15:41:36;5.73;;;3.17;;
36391;SDS011;22639;42.690;23.356;2023-12-07T15:45:07;9.83;;;4.50;;
36391;SDS011;22639;42.690;23.356;2023-12-07T15:48:32;6.80;;;4.67;;
36391;SDS011;22639;42.690;23.356;2023-12-07T15:51:56;4.63;;;4.00;;
36391;SDS011;22639;42.690;23.356;2023-12-07T15:55:20;4.17;;;3.57;;
36391;SDS011;22639;42.690;23.356;2023-12-07T15:58:44;5.23;;;3.50;;
36391;SDS011;22639;42.690;23.356;2023-12-07T16:02:09;4.53;;;3.73;;
36391;SDS011;22639;42.690;23.356;2023-12-07T16:05:33;4.50;;;3.30;;
36391;SDS011;22639;42.690;23.356;2023-12-07T16:08:57;4.80;;;4.10;;
36391;SDS011;22639;42.690;23.356;2023-12-07T16:12:22;3.60;;;3.30;;
36391;SDS011;22639;42.690;23.356;2023-12-07T16:15:46;3.97;;;3.27;;
36391;SDS011;22639;42.690;23.356;2023-12-07T16:19:10;6.87;;;3.43;;
36391;SDS011;22639;42.690;23.356;2023-12-07T16:22:36;5.60;;;3.00;;
36391;SDS011;22639;42.690;23.356;2023-12-07T16:26:00;3.90;;;3.20;;
36391;SDS011;22639;42.690;23.356;2023-12-07T16:29:25;7.87;;;4.63;;
36391;SDS011;22639;42.690;23.356;2023-12-07T16:32:49;10.37;;;6.03;;
36391;SDS011;22639;42.690;23.356;2023-12-07T16:36:16;7.43;;;4.63;;
36391;SDS011;22639;42.690;23.356;2023-12-07T16:39:40;5.67;;;5.17;;
36391;SDS011;22639;42.690;23.356;2023-12-07T16:43:05;9.07;;;5.33;;
36391;SDS011;22639;42.690;23.356;2023-12-07T16:46:32;6.50;;;4.83;;
36391;SDS011;22639;42.690;23.356;2023-12-07T16:49:56;11.17;;;5.63;;
36391;SDS011;22639;42.690;23.356;2023-12-07T16:53:20;6.93;;;6.23;;
36391;SDS011;22639;42.690;23.356;2023-12-07T16:55:48;12.30;;;6.47;;
36391;SDS011;22639;42.690;23.356;2023-12-07T16:58:14;8.80;;;5.30;;
36391;SDS011;22639;42.690;23.356;2023-12-07T17:00:40;7.33;;;5.10;;
36391;SDS011;22639;42.690;23.356;2023-12-07T17:03:06;6.10;;;4.80;;
36391;SDS011;22639;42.690;23.356;2023-12-07T17:05:32;5.90;;;4.23;;
36391;SDS011;22639;42.690;23.356;2023-12-07T17:07:58;5.00;;;3.70;;
36391;SDS011;22639;42.690;23.356;2023-12-07T17:10:23;6.27;;;5.17;;
36391;SDS011;22639;42.690;23.356;2023-12-07T17:12:49;5.20;;;3.80;;
36391;SDS011;22639;42.690;23.356;2023-12-07T17:15:15;9.93;;;5.53;;
36391;SDS011;22639;42.690;23.356;2023-12-07T17:17:41;9.90;;;4.23;;
36391;SDS011;22639;42.690;23.356;2023-12-07T17:20:06;6.30;;;5.10;;
36391;SDS011;22639;42.690;23.356;2023-12-07T17:22:33;5.80;;;4.27;;
36391;SDS011;22639;42.690;23.356;2023-12-07T17:25:01;6.50;;;4.37;;
36391;SDS011;22639;42.690;23.356;2023-12-07T17:27:26;4.57;;;4.13;;
36391;SDS011;22639;42.690;23.356;2023-12-07T17:29:52;7.03;;;4.43;;
36391;SDS011;22639;42.690;23.356;2023-12-07T17:32:18;8.57;;;5.13;;
36391;SDS011;22639;42.690;23.356;2023-12-07T17:34:44;6.80;;;5.00;;
36391;SDS011;22639;42.690;23.356;2023-12-07T17:37:09;6.83;;;5.70;;
36391;SDS011;22639;42.690;23.356;2023-12-07T17:39:35;6.40;;;3.50;;
36391;SDS011;22639;42.690;23.356;2023-12-07T17:42:01;6.40;;;4.87;;
36391;SDS011;22639;42.690;23.356;2023-12-07T17:44:26;10.07;;;5.67;;
36391;SDS011;22639;42.690;23.356;2023-12-07T17:46:52;7.30;;;5.20;;
36391;SDS011;22639;42.690;23.356;2023-12-07T17:49:17;6.67;;;3.43;;
36391;SDS011;22639;42.690;23.356;2023-12-07T17:51:43;8.57;;;4.40;;
36391;SDS011;22639;42.690;23.356;2023-12-07T17:54:08;4.63;;;4.13;;
36391;SDS011;22639;42.690;23.356;2023-12-07T17:56:34;5.50;;;3.60;;
36391;SDS011;22639;42.690;23.356;2023-12-07T17:59:03;4.77;;;3.87;;
36391;SDS011;22639;42.690;23.356;2023-12-07T18:01:29;5.77;;;4.50;;
36391;SDS011;22639;42.690;23.356;2023-12-07T18:03:55;6.70;;;4.70;;
36391;SDS011;22639;42.690;23.356;2023-12-07T18:06:20;6.87;;;4.67;;
36391;SDS011;22639;42.690;23.356;2023-12-07T18:08:46;10.93;;;5.13;;
36391;SDS011;22639;42.690;23.356;2023-12-07T18:11:21;8.23;;;5.00;;
36391;SDS011;22639;42.690;23.356;2023-12-07T18:13:47;7.43;;;5.17;;
36391;SDS011;22639;42.690;23.356;2023-12-07T18:16:14;5.07;;;3.43;;
36391;SDS011;22639;42.690;23.356;2023-12-07T18:18:40;7.60;;;5.43;;
36391;SDS011;22639;42.690;23.356;2023-12-07T18:21:06;6.23;;;5.30;;
36391;SDS011;22639;42.690;23.356;2023-12-07T18:23:31;6.40;;;5.00;;
36391;SDS011;22639;42.690;23.356;2023-12-07T18:25:58;10.87;;;6.00;;
36391;SDS011;22639;42.690;23.356;2023-12-07T18:28:24;9.97;;;5.40;;
36391;SDS011;22639;42.690;23.356;2023-12-07T18:30:50;9.50;;;4.53;;
36391;SDS011;22639;42.690;23.356;2023-12-07T18:33:16;6.10;;;4.60;;
36391;SDS011;22639;42.690;23.356;2023-12-07T18:36:38;5.43;;;4.20;;
36391;SDS011;22639;42.690;23.356;2023-12-07T18:39:46;5.63;;;4.97;;
36391;SDS011;22639;42.690;23.356;2023-12-07T18:42:11;5.80;;;5.23;;
36391;SDS011;22639;42.690;23.356;2023-12-07T18:44:40;12.80;;;5.77;;
36391;SDS011;22639;42.690;23.356;2023-12-07T18:47:07;11.30;;;6.47;;
36391;SDS011;22639;42.690;23.356;2023-12-07T18:49:35;6.03;;;4.30;;
36391;SDS011;22639;42.690;23.356;2023-12-07T18:52:36;11.17;;;5.63;;
36391;SDS011;22639;42.690;23.356;2023-12-07T18:55:21;7.93;;;6.70;;
36391;SDS011;22639;42.690;23.356;2023-12-07T18:58:00;9.70;;;5.93;;
36391;SDS011;22639;42.690;23.356;2023-12-07T19:00:41;4.87;;;3.83;;
36391;SDS011;22639;42.690;23.356;2023-12-07T19:03:28;5.20;;;4.67;;
36391;SDS011;22639;42.690;23.356;2023-12-07T19:06:37;6.57;;;5.00;;
36391;SDS011;22639;42.690;23.356;2023-12-07T19:09:42;8.93;;;6.20;;